Centerpoint, Indiana
Current Conditions -  °F | °C
As of 7:15 AM on Thursday 23 Oct 2014 (Local Time) from K4I7 Reporting Station
Moderate Fog Moderate Fog  
Wind Chill: 34°   Ceiling: 500
Heat Index: 34°   Visibility: 0.5mi
Dew Point: 34°   Wind: 0mph
Humidity: 100%   Direction: NA
Pressure: 30.26"   Gusts: NA
Location:  39.49°N, 86.95°W
Report Text: K4I7 231115Z AUTO 00000KT 1/2SM FG VV005 01/01 A3026 RMK AO2
Loading
Personal Weather Stations






























Interactive Weather Map
Tropical Storm Tracking
New forecast layout! Learn more

10-Day Weather Forecast

Advertisements
Track Severe Weather on mobile